createdAt,value
2023-04-21T00:01:53.501Z,10.93
2023-04-21T00:04:20.255Z,13.60
2023-04-21T00:06:47.054Z,17.67
2023-04-21T00:09:13.500Z,16.63
2023-04-21T00:11:40.211Z,12.43
2023-04-21T00:14:06.798Z,10.67
2023-04-21T00:16:33.575Z,14.73
2023-04-21T00:19:00.345Z,11.73
2023-04-21T00:21:26.875Z,12.87
2023-04-21T00:23:53.496Z,15.17
2023-04-21T00:26:20.988Z,11.37
2023-04-21T00:28:49.202Z,14.20
2023-04-21T00:31:15.822Z,15.10
2023-04-21T00:33:42.591Z,12.27
2023-04-21T00:36:09.146Z,13.63
2023-04-21T00:38:36.463Z,13.47
2023-04-21T00:41:03.066Z,14.63
2023-04-21T00:43:30.144Z,14.63
2023-04-21T00:45:56.659Z,11.07
2023-04-21T00:48:23.180Z,11.43
2023-04-21T00:50:49.761Z,12.67
2023-04-21T00:53:16.457Z,11.47
2023-04-21T00:55:44.904Z,14.40
2023-04-21T00:58:11.664Z,16.03
2023-04-21T01:00:39.505Z,13.37
2023-04-21T01:03:06.792Z,14.67
2023-04-21T01:05:33.595Z,14.03
2023-04-21T01:08:01.335Z,15.77
2023-04-21T01:10:27.935Z,14.50
2023-04-21T01:12:54.562Z,14.40
2023-04-21T01:15:27.378Z,11.73
2023-04-21T01:17:54.450Z,13.60
2023-04-21T01:20:21.060Z,13.77
2023-04-21T01:22:47.912Z,12.33
2023-04-21T01:25:15.109Z,10.10
2023-04-21T01:27:41.699Z,15.27
2023-04-21T01:30:10.065Z,9.97
2023-04-21T01:32:36.938Z,10.70
2023-04-21T01:35:03.776Z,10.70
2023-04-21T01:37:31.343Z,12.30
2023-04-21T01:39:59.151Z,14.47
2023-04-21T01:42:27.018Z,13.73
2023-04-21T01:44:54.588Z,14.93
2023-04-21T01:47:21.697Z,11.47
2023-04-21T01:49:48.306Z,12.83
2023-04-21T01:52:14.821Z,14.47
2023-04-21T01:54:41.413Z,12.30
2023-04-21T01:57:08.113Z,15.32
2023-04-21T01:59:34.847Z,9.80
2023-04-21T02:02:02.386Z,10.70
2023-04-21T02:04:29.122Z,9.73
2023-04-21T02:06:55.831Z,11.77
2023-04-21T02:09:26.018Z,13.27
2023-04-21T02:11:53.474Z,13.20
2023-04-21T02:14:20.059Z,11.33
2023-04-21T02:16:46.600Z,14.20
2023-04-21T02:19:13.183Z,12.27
2023-04-21T02:21:39.814Z,14.40
2023-04-21T02:24:06.433Z,14.80
2023-04-21T02:26:32.984Z,14.23
2023-04-21T02:29:00.217Z,13.13
2023-04-21T02:31:26.834Z,11.40
2023-04-21T02:33:54.602Z,12.47
2023-04-21T02:36:21.198Z,14.47
2023-04-21T02:38:47.848Z,13.07
2023-04-21T02:41:14.422Z,12.97
2023-04-21T02:43:40.940Z,11.97
2023-04-21T02:46:07.974Z,12.97
2023-04-21T02:48:35.576Z,13.47
2023-04-21T02:51:02.170Z,12.40
2023-04-21T02:53:29.216Z,12.17
2023-04-21T02:55:56.364Z,10.60
2023-04-21T02:58:23.410Z,10.03
2023-04-21T03:00:50.012Z,15.23
2023-04-21T03:03:16.895Z,11.37
2023-04-21T03:05:43.581Z,13.03
2023-04-21T03:08:10.177Z,18.10
2023-04-21T03:10:37.354Z,14.70
2023-04-21T03:13:03.899Z,12.40
2023-04-21T03:15:32.025Z,12.03
2023-04-21T03:18:01.202Z,15.57
2023-04-21T03:20:27.838Z,13.03
2023-04-21T03:22:54.491Z,11.43
2023-04-21T03:25:21.640Z,12.47
2023-04-21T03:27:48.296Z,15.33
2023-04-21T03:30:14.808Z,11.83
2023-04-21T03:32:41.469Z,11.13
2023-04-21T03:35:08.348Z,10.23
2023-04-21T03:37:34.965Z,12.30
2023-04-21T03:40:01.525Z,11.57
2023-04-21T03:42:29.758Z,22.23
2023-04-21T03:44:57.049Z,18.00
2023-04-21T03:47:23.983Z,14.10
2023-04-21T03:49:51.614Z,12.83
2023-04-21T03:52:18.174Z,12.90
2023-04-21T03:54:44.695Z,13.67
2023-04-21T03:57:11.195Z,11.77
2023-04-21T03:59:37.827Z,14.63
2023-04-21T04:02:04.446Z,14.43
2023-04-21T04:04:31.701Z,13.13
2023-04-21T04:06:58.652Z,22.13
2023-04-21T04:09:25.225Z,14.67
2023-04-21T04:11:51.814Z,18.10
2023-04-21T04:14:18.358Z,16.23
2023-04-21T04:16:44.877Z,15.43
2023-04-21T04:19:11.631Z,17.53
2023-04-21T04:21:38.353Z,14.13
2023-04-21T04:24:08.805Z,15.00
2023-04-21T04:26:35.863Z,20.03
2023-04-21T04:29:02.505Z,15.00
2023-04-21T04:31:30.442Z,15.23
2023-04-21T04:33:57.480Z,18.13
2023-04-21T04:36:24.555Z,19.40
2023-04-21T04:38:51.288Z,17.73
2023-04-21T04:41:17.992Z,16.87
2023-04-21T04:43:44.559Z,20.53
2023-04-21T04:46:13.144Z,18.20
2023-04-21T04:48:40.761Z,18.77
2023-04-21T04:51:07.409Z,18.30
2023-04-21T04:53:33.933Z,18.73
2023-04-21T04:56:00.529Z,18.50
2023-04-21T04:58:27.152Z,21.60
2023-04-21T05:00:54.023Z,21.93
2023-04-21T05:03:20.715Z,19.57
2023-04-21T05:05:47.363Z,16.17
2023-04-21T05:08:15.777Z,18.17
2023-04-21T05:10:44.284Z,18.90
2023-04-21T05:13:10.864Z,17.97
2023-04-21T05:15:37.425Z,18.07
2023-04-21T05:18:04.053Z,18.63
2023-04-21T05:20:30.688Z,20.70
2023-04-21T05:22:57.235Z,22.17
2023-04-21T05:25:23.812Z,20.30
2023-04-21T05:27:50.388Z,23.23
2023-04-21T05:30:16.954Z,21.87
2023-04-21T05:32:43.553Z,19.60
2023-04-21T05:35:10.195Z,21.73
2023-04-21T05:37:36.751Z,19.57
2023-04-21T05:40:03.472Z,25.40
2023-04-21T05:42:30.008Z,23.50
2023-04-21T05:44:56.613Z,26.80
2023-04-21T05:47:23.166Z,24.70
2023-04-21T05:49:54.087Z,25.03
2023-04-21T05:52:23.417Z,23.50
2023-04-21T05:54:49.953Z,22.97
2023-04-21T05:57:17.637Z,23.97
2023-04-21T05:59:44.209Z,24.93
2023-04-21T06:02:11.469Z,22.43
2023-04-21T06:04:38.200Z,20.87
2023-04-21T06:07:09.131Z,24.27
2023-04-21T06:09:36.304Z,21.07
2023-04-21T06:12:03.379Z,25.87
2023-04-21T06:14:29.912Z,20.50
2023-04-21T06:16:56.524Z,23.07
2023-04-21T06:19:23.359Z,23.13
2023-04-21T06:21:49.856Z,22.67
2023-04-21T06:24:16.701Z,21.27
2023-04-21T06:26:43.334Z,22.07
2023-04-21T06:29:09.818Z,18.03
2023-04-21T06:31:36.593Z,22.27
2023-04-21T06:34:03.188Z,21.77
2023-04-21T06:36:29.714Z,21.63
2023-04-21T06:38:56.309Z,22.70
2023-04-21T06:41:24.728Z,20.37
2023-04-21T06:43:51.449Z,23.27
2023-04-21T06:46:18.380Z,20.63
2023-04-21T06:48:45.089Z,20.50
2023-04-21T06:51:11.601Z,19.53
2023-04-21T06:53:38.395Z,21.60
2023-04-21T06:56:05.314Z,19.87
2023-04-21T06:58:31.878Z,22.60
2023-04-21T07:00:58.546Z,18.30
2023-04-21T07:03:25.269Z,22.37
2023-04-21T07:05:51.981Z,20.30
2023-04-21T07:08:18.496Z,18.67
2023-04-21T07:10:45.008Z,21.57
2023-04-21T07:13:11.577Z,20.73
2023-04-21T07:15:38.105Z,16.90
2023-04-21T07:18:04.701Z,17.70
2023-04-21T07:20:31.330Z,18.17
2023-04-21T07:22:57.839Z,20.13
2023-04-21T07:25:24.443Z,18.73
2023-04-21T07:27:50.980Z,17.00
2023-04-21T07:30:18.141Z,22.83
2023-04-21T07:32:44.753Z,21.17
2023-04-21T07:35:11.338Z,18.63
2023-04-21T07:37:37.934Z,17.87
2023-04-21T07:40:04.636Z,20.37
2023-04-21T07:42:31.212Z,19.47
2023-04-21T07:44:57.755Z,17.57
2023-04-21T07:47:24.340Z,16.45
2023-04-21T07:49:50.963Z,15.90
2023-04-21T07:52:17.531Z,18.60
2023-04-21T07:54:44.099Z,15.47
2023-04-21T07:57:10.729Z,19.03
2023-04-21T07:59:37.306Z,17.83
2023-04-21T08:02:04.016Z,15.00
2023-04-21T08:04:30.859Z,15.10
2023-04-21T08:06:57.900Z,15.43
2023-04-21T08:09:24.701Z,13.63
2023-04-21T08:11:51.257Z,15.77
2023-04-21T08:14:17.945Z,14.37
2023-04-21T08:16:45.037Z,17.80
2023-04-21T08:19:11.681Z,14.13
2023-04-21T08:21:39.982Z,13.30
2023-04-21T08:24:06.717Z,14.30
2023-04-21T08:26:33.922Z,16.07
2023-04-21T08:29:03.484Z,14.47
2023-04-21T08:31:31.076Z,14.70
2023-04-21T08:34:02.067Z,15.77
2023-04-21T08:36:30.357Z,14.30
2023-04-21T08:38:57.562Z,12.20
2023-04-21T08:41:24.928Z,25.47
2023-04-21T08:43:51.549Z,11.33
2023-04-21T08:46:18.683Z,13.23
2023-04-21T08:48:46.014Z,13.80
2023-04-21T08:51:14.738Z,10.50
2023-04-21T08:53:41.664Z,13.03
2023-04-21T08:56:11.175Z,10.87
2023-04-21T08:58:38.430Z,11.73
2023-04-21T09:01:05.422Z,9.20
2023-04-21T09:03:32.093Z,10.30
2023-04-21T09:06:00.052Z,9.67
2023-04-21T09:08:29.724Z,9.63
2023-04-21T09:10:56.734Z,12.40
2023-04-21T09:13:29.801Z,9.40
2023-04-21T09:15:56.427Z,11.37
2023-04-21T09:18:24.322Z,12.70
2023-04-21T09:20:52.251Z,9.70
2023-04-21T09:23:20.943Z,10.83
2023-04-21T09:25:47.468Z,8.47
2023-04-21T09:28:14.765Z,10.50
2023-04-21T09:30:42.287Z,9.10
2023-04-21T09:33:27.321Z,9.70
2023-04-21T09:36:00.583Z,8.50
2023-04-21T09:38:27.132Z,9.03
2023-04-21T09:40:59.930Z,9.70
2023-04-21T09:43:26.482Z,7.77
2023-04-21T09:45:53.799Z,9.27
2023-04-21T09:48:22.610Z,8.23
2023-04-21T09:53:22.016Z,8.37
2023-04-21T09:55:51.147Z,9.33
2023-04-21T09:58:20.239Z,8.17
2023-04-21T10:00:47.024Z,7.07
2023-04-21T10:03:14.523Z,8.97
2023-04-21T10:05:43.122Z,6.97
2023-04-21T10:08:11.812Z,7.57
2023-04-21T10:10:38.844Z,6.53
2023-04-21T10:13:05.702Z,9.70
2023-04-21T10:15:32.991Z,6.17
2023-04-21T10:18:13.651Z,7.07
2023-04-21T10:20:53.764Z,7.23
2023-04-21T10:23:30.376Z,7.37
2023-04-21T10:26:10.641Z,7.13
2023-04-21T10:28:41.343Z,7.07
2023-04-21T10:31:20.271Z,6.37
2023-04-21T10:34:05.356Z,6.30
2023-04-21T10:36:33.051Z,8.93
2023-04-21T10:39:01.495Z,6.83
2023-04-21T10:41:31.567Z,6.33
2023-04-21T10:43:59.310Z,6.13
2023-04-21T10:46:31.932Z,6.13
2023-04-21T10:49:21.491Z,6.10
2023-04-21T10:52:00.630Z,5.40
2023-04-21T10:54:28.074Z,5.83
2023-04-21T10:56:55.343Z,7.47
2023-04-21T10:59:22.104Z,6.27
2023-04-21T11:01:48.637Z,6.20
2023-04-21T11:04:16.232Z,6.53
2023-04-21T11:06:43.101Z,6.27
2023-04-21T11:09:09.624Z,5.50
2023-04-21T11:11:39.349Z,6.60
2023-04-21T11:14:05.987Z,6.10
2023-04-21T11:16:32.588Z,6.27
2023-04-21T11:18:59.170Z,6.63
2023-04-21T11:21:25.613Z,6.93
2023-04-21T11:23:53.404Z,6.60
2023-04-21T11:26:29.720Z,6.60
2023-04-21T11:28:56.202Z,6.53
2023-04-21T11:31:28.256Z,7.13
2023-04-21T11:33:55.663Z,6.43
2023-04-21T11:36:22.799Z,6.77
2023-04-21T11:38:49.330Z,6.87
2023-04-21T11:41:25.541Z,6.87
2023-04-21T11:43:52.454Z,8.97
2023-04-21T11:46:23.489Z,8.90
2023-04-21T11:49:03.154Z,6.80
2023-04-21T11:51:33.439Z,7.37
2023-04-21T11:54:00.399Z,6.80
2023-04-21T11:56:26.940Z,7.00
2023-04-21T11:58:53.643Z,6.03
2023-04-21T12:01:23.272Z,6.43
2023-04-21T12:03:53.647Z,6.23
2023-04-21T12:06:29.451Z,7.23
2023-04-21T12:08:57.795Z,7.43
2023-04-21T12:11:25.244Z,6.70
2023-04-21T12:13:51.852Z,8.60
2023-04-21T12:16:18.580Z,7.17
2023-04-21T12:18:45.222Z,6.93
2023-04-21T12:21:14.422Z,7.30
2023-04-21T12:23:40.933Z,6.80
2023-04-21T12:26:07.462Z,6.53
2023-04-21T12:28:34.025Z,8.37
2023-04-21T12:31:00.538Z,6.40
2023-04-21T12:33:27.163Z,6.53
2023-04-21T12:35:53.781Z,7.07
2023-04-21T12:38:20.373Z,7.73
2023-04-21T12:40:47.031Z,6.70
2023-04-21T12:43:13.587Z,6.73
2023-04-21T12:45:40.178Z,7.63
2023-04-21T12:48:06.895Z,6.93
2023-04-21T12:50:33.576Z,6.97
2023-04-21T12:53:00.066Z,6.83
2023-04-21T12:55:26.757Z,8.80
2023-04-21T12:57:53.333Z,9.03
2023-04-21T13:00:19.906Z,8.00
2023-04-21T13:02:46.687Z,9.03
2023-04-21T13:05:13.483Z,8.27
2023-04-21T13:07:39.999Z,7.70
2023-04-21T13:10:06.789Z,7.20
2023-04-21T13:12:33.535Z,8.77
2023-04-21T13:15:00.153Z,7.67
2023-04-21T13:17:26.714Z,7.73
2023-04-21T13:19:53.294Z,7.70
2023-04-21T13:22:19.865Z,6.77
2023-04-21T13:24:46.643Z,6.67
2023-04-21T13:27:13.193Z,7.40
2023-04-21T13:29:39.797Z,7.00
2023-04-21T13:32:07.486Z,6.77
2023-04-21T13:34:34.782Z,8.10
2023-04-21T13:37:02.010Z,6.93
2023-04-21T13:39:28.629Z,8.23
2023-04-21T13:41:55.241Z,9.83
2023-04-21T13:44:21.805Z,7.43
2023-04-21T13:46:48.421Z,6.80
2023-04-21T13:49:14.972Z,7.57
2023-04-21T13:51:42.121Z,6.57
2023-04-21T13:54:08.638Z,6.50
2023-04-21T13:56:36.231Z,6.50
2023-04-21T13:59:06.856Z,7.27
2023-04-21T14:01:33.448Z,9.23
2023-04-21T14:04:00.101Z,7.93
2023-04-21T14:06:27.929Z,7.37
2023-04-21T14:08:54.444Z,7.10
2023-04-21T14:11:21.402Z,7.03
2023-04-21T14:14:04.846Z,6.30
2023-04-21T14:16:34.943Z,6.57
2023-04-21T14:19:01.612Z,6.93
2023-04-21T14:21:28.169Z,7.20
2023-04-21T14:23:54.681Z,7.47
2023-04-21T14:26:21.380Z,8.60
2023-04-21T14:28:48.128Z,6.60
2023-04-21T14:31:14.671Z,6.63
2023-04-21T14:33:41.380Z,15.37
2023-04-21T14:36:07.966Z,6.40
2023-04-21T14:38:34.576Z,7.80
2023-04-21T14:41:01.131Z,6.83
2023-04-21T14:43:27.733Z,7.10
2023-04-21T14:45:54.319Z,6.57
2023-04-21T14:48:21.310Z,7.27
2023-04-21T14:50:48.014Z,6.43
2023-04-21T14:53:14.602Z,6.60
2023-04-21T14:55:41.161Z,7.10
2023-04-21T14:58:07.759Z,9.03
2023-04-21T15:00:36.439Z,7.40
2023-04-21T15:03:03.122Z,6.60
2023-04-21T15:05:30.114Z,6.27
2023-04-21T15:07:56.770Z,9.73
2023-04-21T15:10:23.415Z,7.57
2023-04-21T15:12:49.951Z,7.87
2023-04-21T15:15:16.536Z,6.90
2023-04-21T15:17:43.124Z,7.77
2023-04-21T15:20:10.266Z,10.73
2023-04-21T15:22:37.116Z,7.20
2023-04-21T15:25:03.822Z,7.00
2023-04-21T15:27:30.323Z,7.60
2023-04-21T15:29:57.045Z,6.67
2023-04-21T15:32:23.848Z,6.93
2023-04-21T15:34:50.422Z,7.03
2023-04-21T15:37:17.719Z,8.47
2023-04-21T15:39:44.291Z,7.57
2023-04-21T15:42:10.961Z,7.53
2023-04-21T15:44:39.084Z,7.70
2023-04-21T15:47:06.670Z,7.97
2023-04-21T15:49:36.108Z,6.80
2023-04-21T15:52:04.416Z,12.13
2023-04-21T15:54:33.959Z,7.80
2023-04-21T15:57:03.987Z,6.80
2023-04-21T15:59:31.045Z,7.10
2023-04-21T16:01:57.699Z,7.73
2023-04-21T16:04:24.623Z,7.60
2023-04-21T16:06:51.751Z,8.00
2023-04-21T16:09:18.515Z,7.33
2023-04-21T16:11:45.191Z,7.50
2023-04-21T16:14:16.419Z,6.57
2023-04-21T16:16:43.500Z,7.47
2023-04-21T16:19:10.229Z,6.53
2023-04-21T16:21:40.026Z,6.80
2023-04-21T16:24:07.672Z,7.10
2023-04-21T16:26:35.724Z,7.27
2023-04-21T16:29:02.470Z,7.20
2023-04-21T16:31:28.986Z,8.83
2023-04-21T16:33:59.826Z,7.10
2023-04-21T16:36:28.210Z,7.13
2023-04-21T16:38:55.520Z,6.60
2023-04-21T16:41:22.299Z,7.43
2023-04-21T16:43:48.928Z,7.20
2023-04-21T16:46:15.678Z,7.27
2023-04-21T16:48:42.372Z,6.90
2023-04-21T16:51:09.454Z,7.17
2023-04-21T16:53:38.799Z,7.33
2023-04-21T16:56:06.948Z,7.83
2023-04-21T16:58:33.560Z,7.63
2023-04-21T17:01:00.151Z,7.33
2023-04-21T17:03:28.914Z,7.83
2023-04-21T17:05:55.864Z,7.60
2023-04-21T17:08:22.389Z,7.50
2023-04-21T17:10:48.998Z,7.97
2023-04-21T17:13:15.632Z,7.37
2023-04-21T17:15:42.355Z,7.70
2023-04-21T17:18:08.912Z,7.30
2023-04-21T17:20:35.560Z,7.97
2023-04-21T17:23:02.225Z,8.57
2023-04-21T17:25:28.756Z,8.07
2023-04-21T17:27:55.292Z,8.43
2023-04-21T17:30:22.902Z,9.27
2023-04-21T17:32:55.205Z,10.37
2023-04-21T17:35:27.230Z,8.73
2023-04-21T17:37:53.795Z,9.00
2023-04-21T17:40:20.896Z,7.30
2023-04-21T17:42:47.441Z,7.90
2023-04-21T17:45:14.283Z,6.87
2023-04-21T17:47:41.295Z,7.27
2023-04-21T17:50:09.854Z,7.83
2023-04-21T17:52:36.416Z,7.87
2023-04-21T17:55:02.984Z,8.73
2023-04-21T17:57:29.624Z,9.20
2023-04-21T17:59:56.285Z,8.73
2023-04-21T18:02:23.019Z,8.43
2023-04-21T18:04:49.739Z,7.70
2023-04-21T18:07:16.586Z,7.50
2023-04-21T18:09:43.491Z,8.37
2023-04-21T18:12:10.073Z,9.63
2023-04-21T18:14:37.228Z,11.10
2023-04-21T18:17:04.457Z,21.53
2023-04-21T18:19:31.148Z,26.63
2023-04-21T18:21:58.017Z,17.73
2023-04-21T18:24:24.553Z,17.87
2023-04-21T18:26:51.406Z,17.70
2023-04-21T18:29:19.533Z,17.30
2023-04-21T18:31:46.173Z,16.17
2023-04-21T18:34:14.350Z,15.00
2023-04-21T18:36:43.028Z,11.80
2023-04-21T18:39:13.135Z,10.60
2023-04-21T18:41:40.457Z,10.37
2023-04-21T18:44:07.046Z,10.03
2023-04-21T18:46:33.766Z,11.03
2023-04-21T18:49:00.285Z,12.80
2023-04-21T18:51:31.661Z,11.23
2023-04-21T18:53:58.458Z,10.50
2023-04-21T18:56:25.271Z,9.47
2023-04-21T18:58:51.837Z,9.77
2023-04-21T19:01:18.619Z,10.70
2023-04-21T19:03:45.357Z,11.53
2023-04-21T19:06:11.981Z,11.20
2023-04-21T19:08:42.512Z,11.03
2023-04-21T19:11:11.135Z,11.03
2023-04-21T19:13:37.785Z,10.67
2023-04-21T19:16:05.188Z,10.10
2023-04-21T19:18:32.161Z,9.93
2023-04-21T19:20:58.816Z,10.23
2023-04-21T19:23:25.380Z,10.03
2023-04-21T19:25:54.601Z,9.57
2023-04-21T19:28:21.638Z,12.13
2023-04-21T19:30:48.842Z,12.47
2023-04-21T19:33:16.042Z,15.63
2023-04-21T19:35:43.012Z,14.50
2023-04-21T19:38:10.054Z,15.27
2023-04-21T19:40:36.568Z,11.60
2023-04-21T19:43:04.560Z,13.03
2023-04-21T19:45:31.130Z,12.23
2023-04-21T19:47:57.700Z,14.73
2023-04-21T19:50:24.356Z,14.40
2023-04-21T19:52:50.973Z,14.40
2023-04-21T19:55:17.546Z,13.50
2023-04-21T19:57:44.327Z,17.03
2023-04-21T20:00:11.412Z,13.13
2023-04-21T20:02:40.765Z,13.63
2023-04-21T20:05:09.465Z,15.77
2023-04-21T20:07:37.236Z,17.17
2023-04-21T20:10:04.901Z,19.07
2023-04-21T20:12:31.677Z,16.40
2023-04-21T20:14:58.248Z,15.20
2023-04-21T20:17:24.830Z,15.90
2023-04-21T20:19:52.446Z,16.60
2023-04-21T20:22:18.978Z,18.30
2023-04-21T20:24:47.235Z,20.27
2023-04-21T20:27:14.352Z,18.73
2023-04-21T20:29:41.054Z,17.90
2023-04-21T20:32:07.900Z,22.83
2023-04-21T20:34:36.212Z,24.77
2023-04-21T20:37:04.105Z,22.27
2023-04-21T20:39:30.649Z,22.80
2023-04-21T20:42:12.000Z,24.53
2023-04-21T20:44:41.262Z,26.13
2023-04-21T20:47:08.510Z,24.73
2023-04-21T20:49:35.287Z,26.37
2023-04-21T20:52:02.086Z,22.93
2023-04-21T20:54:28.667Z,24.47
2023-04-21T20:56:55.424Z,27.17
2023-04-21T20:59:22.424Z,26.73
2023-04-21T21:01:49.014Z,24.67
2023-04-21T21:04:15.796Z,24.27
2023-04-21T21:06:42.869Z,28.70
2023-04-21T21:09:10.111Z,36.30
2023-04-21T21:11:36.714Z,70.27
2023-04-21T21:14:03.197Z,59.90
2023-04-21T21:16:30.401Z,67.93
2023-04-21T21:18:56.934Z,79.33
2023-04-21T21:21:23.475Z,87.67
2023-04-21T21:23:50.032Z,97.73
2023-04-21T21:26:16.535Z,95.47
2023-04-21T21:28:43.120Z,100.17
2023-04-21T21:31:09.637Z,112.03
2023-04-21T21:33:36.314Z,101.83
2023-04-21T21:36:03.024Z,110.40
2023-04-21T21:38:29.575Z,107.60
2023-04-21T21:40:56.108Z,86.20
2023-04-21T21:43:22.811Z,96.13
2023-04-21T21:45:49.430Z,86.23
2023-04-21T21:48:16.789Z,95.60
2023-04-21T21:50:43.443Z,102.70
2023-04-21T21:53:10.893Z,88.07
2023-04-21T21:55:37.918Z,76.53
2023-04-21T21:58:04.419Z,69.43
2023-04-21T22:00:30.958Z,73.53
2023-04-21T22:02:58.489Z,79.83
2023-04-21T22:05:25.104Z,95.93
2023-04-21T22:07:51.735Z,190.77
2023-04-21T22:10:18.290Z,300.40
2023-04-21T22:12:45.827Z,404.37
2023-04-21T22:15:12.402Z,430.50
2023-04-21T22:17:39.050Z,420.83
2023-04-21T22:20:08.467Z,403.93
2023-04-21T22:22:35.703Z,315.90
2023-04-21T22:25:02.289Z,228.43
2023-04-21T22:27:31.330Z,193.37
2023-04-21T22:30:00.566Z,189.03
2023-04-21T22:32:29.273Z,228.23
2023-04-21T22:34:55.939Z,191.63
2023-04-21T22:37:22.524Z,197.40
2023-04-21T22:39:49.025Z,238.00
2023-04-21T22:42:15.546Z,307.47
2023-04-21T22:44:43.077Z,315.70
2023-04-21T22:47:10.761Z,279.90
2023-04-21T22:49:37.761Z,244.43
2023-04-21T22:52:04.539Z,232.27
2023-04-21T22:54:31.212Z,170.33
2023-04-21T22:56:58.452Z,143.33
2023-04-21T22:59:28.056Z,110.50
2023-04-21T23:01:54.618Z,115.13
2023-04-21T23:04:21.831Z,100.70
2023-04-21T23:06:48.435Z,89.27
2023-04-21T23:09:14.996Z,80.27
2023-04-21T23:11:41.639Z,78.77
2023-04-21T23:14:08.271Z,62.20
2023-04-21T23:16:34.858Z,54.10
2023-04-21T23:19:01.464Z,44.33
2023-04-21T23:21:28.252Z,40.83
2023-04-21T23:23:54.773Z,35.67
2023-04-21T23:26:21.716Z,38.30
2023-04-21T23:28:48.282Z,26.97
2023-04-21T23:31:14.909Z,30.73
2023-04-21T23:33:41.492Z,29.77
2023-04-21T23:36:08.083Z,20.87
2023-04-21T23:38:34.581Z,18.63
2023-04-21T23:41:01.110Z,21.97
2023-04-21T23:43:28.443Z,20.67
2023-04-21T23:45:55.026Z,19.40
2023-04-21T23:48:21.575Z,20.40
2023-04-21T23:50:48.135Z,18.67
2023-04-21T23:53:14.713Z,19.50
2023-04-21T23:55:41.426Z,20.60
2023-04-21T23:58:07.995Z,19.93
